Time;durP1;ratioP1;P1;durP2;ratioP2;P2;SDS_P1;SDS_P2;PMS_P1;PMS_P2;Temp;Humidity;BMP_temperature;BMP_pressure;BME280_temperature;BME280_humidity;BME280_pressure;Samples;Min_cycle;Max_cycle;Signal;HPM_P1;HPM_P2
2023/07/22 00:01:50;;;;;;;14.75;11.43;;;;;;;13.97;78.02;101324.78;6217356;23;20035;-66
2023/07/22 00:04:15;;;;;;;12.18;10.48;;;;;;;13.93;78.67;101327.50;6191606;22;20054;-66
2023/07/22 00:06:40;;;;;;;13.60;12.02;;;;;;;13.94;77.75;101321.34;6166390;23;20046;-66
2023/07/22 00:09:06;;;;;;;15.50;13.15;;;;;;;13.89;77.55;101321.41;6166401;23;20011;-66
2023/07/22 00:11:32;;;;;;;14.57;12.50;;;;;;;13.97;77.90;101331.81;6166547;23;20028;-66
2023/07/22 00:13:58;;;;;;;16.88;13.13;;;;;;;13.98;77.81;101326.50;6217310;23;20023;-66
2023/07/22 00:16:24;;;;;;;16.35;13.38;;;;;;;13.98;77.90;101334.41;6191150;23;20095;-66
2023/07/22 00:18:49;;;;;;;17.55;13.45;;;;;;;14.01;77.49;101329.09;6165609;23;20089;-66
2023/07/22 00:21:15;;;;;;;15.70;14.00;;;;;;;14.01;77.28;101325.59;6192247;23;20008;-66
2023/07/22 00:23:40;;;;;;;15.23;13.63;;;;;;;13.97;77.61;101319.50;6191051;23;20009;-66
2023/07/22 00:26:05;;;;;;;15.32;13.40;;;;;;;13.99;77.07;101322.09;6241689;23;20038;-66
2023/07/22 00:28:31;;;;;;;16.27;13.48;;;;;;;14.00;77.10;101315.94;6191948;23;20015;-66
2023/07/22 00:30:57;;;;;;;15.93;13.77;;;;;;;13.96;76.83;101324.81;6216746;23;20012;-66
2023/07/22 00:33:23;;;;;;;15.55;13.85;;;;;;;14.02;77.00;101325.56;6166095;23;20322;-66
2023/07/22 00:35:52;;;;;;;19.48;14.45;;;;;;;13.99;78.00;101322.09;6191233;23;20022;-66
2023/07/22 00:38:18;;;;;;;16.70;14.80;;;;;;;14.04;76.98;101330.81;6191591;23;20421;-66
2023/07/22 00:40:44;;;;;;;16.33;13.57;;;;;;;14.08;77.22;101324.59;6190136;23;20004;-65
2023/07/22 00:43:10;;;;;;;17.58;13.85;;;;;;;14.07;77.04;101320.22;6189597;23;20019;-65
2023/07/22 00:45:35;;;;;;;16.33;14.63;;;;;;;14.03;77.53;101326.44;6214952;23;20022;-66
2023/07/22 00:48:02;;;;;;;16.77;14.10;;;;;;;14.10;77.36;101328.03;6215438;23;20392;-68
2023/07/22 00:50:27;;;;;;;17.50;14.18;;;;;;;14.10;77.95;101329.81;6166009;23;20019;-68
2023/07/22 00:52:53;;;;;;;16.23;14.43;;;;;;;14.13;77.81;101327.97;6191793;23;20039;-68
2023/07/22 00:55:18;;;;;;;16.90;14.75;;;;;;;14.20;78.22;101321.69;6190635;23;20004;-68
2023/07/22 00:57:44;;;;;;;17.90;15.13;;;;;;;14.20;77.95;101313.78;6190807;23;20011;-68
2023/07/22 01:00:11;;;;;;;17.58;14.93;;;;;;;14.21;78.49;101318.19;6165995;23;20012;-68
2023/07/22 01:02:38;;;;;;;19.13;15.02;;;;;;;14.17;79.35;101311.22;6190613;23;20008;-68
2023/07/22 01:05:05;;;;;;;21.10;14.85;;;;;;;14.19;79.22;101320.00;6190479;23;20048;-68
2023/07/22 01:07:31;;;;;;;20.77;15.43;;;;;;;14.14;79.69;101319.19;6165895;23;20008;-68
2023/07/22 01:09:58;;;;;;;17.58;15.18;;;;;;;14.16;79.60;101314.75;6190408;23;20043;-68
2023/07/22 01:12:23;;;;;;;17.45;15.30;;;;;;;14.08;80.15;101310.53;6191079;23;20004;-68
2023/07/22 01:14:50;;;;;;;17.27;14.30;;;;;;;14.06;80.29;101309.69;6216181;23;20374;-68
2023/07/22 01:17:15;;;;;;;17.45;14.68;;;;;;;14.05;81.01;101311.47;6190243;23;20008;-68
2023/07/22 01:19:41;;;;;;;18.48;16.05;;;;;;;14.02;81.36;101309.75;6191883;23;20015;-68
2023/07/22 01:22:07;;;;;;;18.15;14.68;;;;;;;14.01;81.02;101307.16;6216148;23;20031;-68
2023/07/22 01:24:33;;;;;;;18.55;15.02;;;;;;;13.88;81.43;101302.97;6165361;23;20286;-68
2023/07/22 01:26:58;;;;;;;16.38;14.65;;;;;;;13.95;80.93;101304.59;6190437;23;20035;-68
2023/07/22 01:29:25;;;;;;;17.27;14.43;;;;;;;13.91;81.12;101303.81;6215589;23;20444;-68
2023/07/22 01:31:52;;;;;;;19.25;15.27;;;;;;;13.95;80.48;101300.22;6215977;23;20050;-68
2023/07/22 01:34:18;;;;;;;16.73;14.30;;;;;;;13.91;81.09;101297.69;6242256;22;20024;-68
2023/07/22 01:36:47;;;;;;;17.05;14.88;;;;;;;13.92;80.83;101296.75;6166002;23;20410;-68
2023/07/22 01:39:13;;;;;;;18.88;14.95;;;;;;;13.91;80.11;101292.41;6190743;23;20008;-68
2023/07/22 01:41:38;;;;;;;18.23;15.02;;;;;;;13.87;80.90;101286.31;6215937;23;20004;-68
2023/07/22 01:44:04;;;;;;;19.70;15.27;;;;;;;13.90;80.53;101285.41;6215448;22;20319;-68
2023/07/22 01:46:29;;;;;;;16.90;13.75;;;;;;;13.88;80.61;101287.19;6190831;23;20011;-68
2023/07/22 01:48:58;;;;;;;17.85;14.60;;;;;;;13.85;80.79;101285.50;6189037;23;20012;-68
2023/07/22 01:51:24;;;;;;;17.33;14.05;;;;;;;13.85;80.98;101288.13;6166888;23;20008;-68
2023/07/22 01:53:49;;;;;;;15.63;13.93;;;;;;;13.88;80.81;101287.19;6190766;23;20036;-68
2023/07/22 01:56:16;;;;;;;17.73;14.10;;;;;;;13.79;81.43;101283.84;6191442;23;20012;-68
2023/07/22 01:58:41;;;;;;;16.58;14.25;;;;;;;13.82;81.12;101281.16;6190698;23;20012;-68
2023/07/22 02:01:07;;;;;;;17.10;15.27;;;;;;;13.82;81.05;101280.25;6166479;23;20107;-68
2023/07/22 02:03:33;;;;;;;18.27;14.63;;;;;;;13.79;81.05;101283.84;6167437;23;20043;-68
2023/07/22 02:06:03;;;;;;;15.82;14.15;;;;;;;13.79;81.46;101281.19;6193330;23;20111;-68
2023/07/22 02:08:28;;;;;;;20.27;15.02;;;;;;;13.76;81.35;101289.13;6168249;23;20434;-68
2023/07/22 02:10:54;;;;;;;18.95;14.80;;;;;;;13.76;81.14;101286.50;6191977;23;20081;-68
2023/07/22 02:13:19;;;;;;;18.95;14.65;;;;;;;13.78;81.63;101290.00;6168809;23;20004;-68
2023/07/22 02:15:45;;;;;;;16.90;15.20;;;;;;;13.74;82.00;101285.66;6168175;23;20008;-68
2023/07/22 02:18:10;;;;;;;17.23;14.60;;;;;;;13.78;81.61;101281.22;6192964;23;20004;-68
2023/07/22 02:20:36;;;;;;;17.40;14.70;;;;;;;13.73;81.43;101286.56;6218221;23;20008;-68
2023/07/22 02:23:01;;;;;;;20.25;15.15;;;;;;;13.73;81.51;101273.38;6219050;23;20337;-68
2023/07/22 02:25:26;;;;;;;17.63;14.30;;;;;;;13.73;81.92;101278.66;6192739;23;20484;-68
2023/07/22 02:27:52;;;;;;;16.85;14.48;;;;;;;13.76;82.03;101277.75;6167867;23;20011;-68
2023/07/22 02:30:17;;;;;;;16.33;14.57;;;;;;;13.72;82.34;101271.69;6168160;23;20008;-68
2023/07/22 02:32:43;;;;;;;17.17;14.77;;;;;;;13.72;82.47;101273.41;6192644;23;20031;-68
2023/07/22 02:35:09;;;;;;;17.45;15.15;;;;;;;13.64;82.96;101265.66;6167615;23;20052;-68
2023/07/22 02:37:38;;;;;;;18.02;14.98;;;;;;;13.64;83.51;101274.44;6168758;23;20078;-68
2023/07/22 02:40:07;;;;;;;19.23;15.95;;;;;;;13.62;83.22;101267.44;6217542;23;20004;-68
2023/07/22 02:42:35;;;;;;;20.87;15.50;;;;;;;13.59;83.27;101262.22;6169978;23;20019;-68
2023/07/22 02:45:01;;;;;;;16.90;14.77;;;;;;;13.56;83.47;101264.94;6193619;23;20034;-68
2023/07/22 02:47:26;;;;;;;19.17;16.05;;;;;;;13.54;83.84;101267.59;6244081;23;20469;-68
2023/07/22 02:49:52;;;;;;;17.65;15.60;;;;;;;13.52;83.54;101262.34;6218222;23;20016;-68
2023/07/22 02:52:17;;;;;;;16.58;14.73;;;;;;;13.49;83.33;101265.03;6192995;23;20418;-68
2023/07/22 02:55:07;;;;;;;16.23;14.52;;;;;;;13.52;83.00;101270.25;6216927;23;20030;-68
2023/07/22 02:57:33;;;;;;;16.67;14.23;;;;;;;13.46;83.15;101264.22;6218037;23;20015;-68
2023/07/22 02:59:59;;;;;;;16.58;14.18;;;;;;;13.38;83.25;101266.97;6217614;23;20038;-68
2023/07/22 03:02:24;;;;;;;16.65;13.85;;;;;;;13.34;83.48;101273.16;6191942;23;20528;-68
2023/07/22 03:04:50;;;;;;;15.43;13.50;;;;;;;13.28;83.39;101268.00;6193173;23;20054;-68
2023/07/22 03:07:15;;;;;;;16.80;14.60;;;;;;;13.25;83.04;101265.41;6217829;23;20043;-68
2023/07/22 03:09:41;;;;;;;16.30;13.93;;;;;;;13.29;83.14;101267.97;6192363;23;20091;-68
2023/07/22 03:12:07;;;;;;;16.50;14.38;;;;;;;13.28;82.87;101265.38;6193182;23;20016;-68
2023/07/22 03:14:36;;;;;;;16.48;14.27;;;;;;;13.17;83.27;101271.69;6192346;23;20019;-68
2023/07/22 03:17:03;;;;;;;15.85;13.32;;;;;;;13.03;83.77;101264.88;6169505;23;20035;-68
2023/07/22 03:19:29;;;;;;;18.63;14.63;;;;;;;13.03;83.55;101276.28;6168178;23;20008;-68
2023/07/22 03:21:55;;;;;;;19.88;14.15;;;;;;;12.93;83.56;101270.28;6192725;23;20341;-68
2023/07/22 03:24:20;;;;;;;18.65;14.18;;;;;;;12.99;83.79;101279.84;6191479;22;20364;-68
2023/07/22 03:26:46;;;;;;;17.73;13.80;;;;;;;12.89;83.78;101281.75;6190648;23;20015;-68
2023/07/22 03:29:12;;;;;;;18.90;14.63;;;;;;;12.94;83.68;101293.06;6216755;23;20004;-68
2023/07/22 03:31:37;;;;;;;17.27;14.70;;;;;;;12.94;83.69;101284.28;6191659;23;20057;-68
2023/07/22 03:34:03;;;;;;;20.90;15.23;;;;;;;12.78;84.16;101291.53;6166863;22;20016;-68
2023/07/22 03:36:28;;;;;;;20.20;14.98;;;;;;;12.77;84.74;101293.31;6191275;23;20422;-68
2023/07/22 03:38:54;;;;;;;16.92;13.82;;;;;;;12.79;84.29;101288.88;6216131;23;20436;-68
2023/07/22 03:41:19;;;;;;;20.52;15.05;;;;;;;12.68;84.57;101289.91;6167324;23;20430;-68
2023/07/22 03:43:45;;;;;;;21.40;14.82;;;;;;;12.61;85.03;101291.75;6191458;23;20495;-68
2023/07/22 03:46:10;;;;;;;20.63;15.57;;;;;;;12.66;84.86;101287.31;6191742;23;20062;-68
2023/07/22 03:48:35;;;;;;;18.52;14.73;;;;;;;12.53;84.73;101290.97;6191385;23;20086;-68
2023/07/22 03:51:01;;;;;;;18.20;14.38;;;;;;;12.53;84.62;101289.22;6191790;23;20008;-68
2023/07/22 03:53:27;;;;;;;19.88;14.88;;;;;;;12.57;85.68;101282.16;6192614;23;20027;-68
2023/07/22 03:55:52;;;;;;;16.77;14.55;;;;;;;12.54;85.81;101287.47;6190083;23;20016;-68
2023/07/22 03:58:17;;;;;;;17.52;14.77;;;;;;;12.54;86.29;101284.84;6191981;23;20012;-68
2023/07/22 04:00:43;;;;;;;17.77;14.98;;;;;;;12.51;86.44;101288.38;6216447;23;20016;-68
2023/07/22 04:03:08;;;;;;;18.50;14.35;;;;;;;12.47;86.55;101279.66;6189188;23;20213;-68
2023/07/22 04:05:34;;;;;;;19.95;14.25;;;;;;;12.43;86.39;101285.84;6215894;23;20058;-68
2023/07/22 04:07:59;;;;;;;18.88;15.13;;;;;;;12.46;86.51;101288.44;6216384;23;20012;-68
2023/07/22 04:10:24;;;;;;;19.40;14.43;;;;;;;12.40;86.32;101287.66;6191262;23;20030;-68
2023/07/22 04:12:50;;;;;;;17.65;14.32;;;;;;;12.46;87.06;101291.06;6192088;23;20334;-68
2023/07/22 04:15:17;;;;;;;17.13;14.20;;;;;;;12.54;86.72;101285.72;6191359;23;20004;-68
2023/07/22 04:17:42;;;;;;;17.50;14.40;;;;;;;12.57;86.68;101275.16;6191105;23;20015;-68
2023/07/22 04:20:08;;;;;;;16.58;14.73;;;;;;;12.61;86.70;101282.13;6189355;23;20008;-68
2023/07/22 04:22:34;;;;;;;18.70;13.98;;;;;;;12.61;86.67;101290.00;6243139;23;20054;-68
2023/07/22 04:24:59;;;;;;;16.55;13.93;;;;;;;12.60;86.79;101288.25;6189531;23;20079;-68
2023/07/22 04:27:26;;;;;;;16.35;13.68;;;;;;;12.69;86.68;101287.28;6190214;23;20015;-68
2023/07/22 04:29:52;;;;;;;16.35;13.48;;;;;;;12.73;86.36;101280.19;6188955;23;20004;-68
2023/07/22 04:32:17;;;;;;;15.90;13.65;;;;;;;12.87;85.91;101287.91;6215849;23;20056;-68
2023/07/22 04:34:43;;;;;;;17.98;13.57;;;;;;;12.92;85.48;101281.69;6166380;23;20027;-68
2023/07/22 04:37:08;;;;;;;18.58;14.07;;;;;;;12.95;85.40;101294.78;6165711;23;20012;-68
2023/07/22 04:39:34;;;;;;;15.20;12.48;;;;;;;13.10;84.90;101293.72;6190679;23;20042;-68
2023/07/22 04:41:59;;;;;;;16.13;13.32;;;;;;;13.02;85.01;101292.94;6190303;23;20016;-68
2023/07/22 04:44:25;;;;;;;17.42;13.45;;;;;;;13.08;85.05;101299.88;6191153;23;20434;-68
2023/07/22 04:46:51;;;;;;;15.45;13.05;;;;;;;13.39;84.54;101292.41;6216939;23;20423;-68
2023/07/22 04:49:17;;;;;;;14.98;12.98;;;;;;;13.64;83.34;101292.00;6190012;23;20004;-68
2023/07/22 04:51:45;;;;;;;15.23;13.38;;;;;;;13.85;81.99;101294.25;6191755;23;20012;-68
2023/07/22 04:54:11;;;;;;;17.02;13.88;;;;;;;13.93;81.50;101295.88;6215872;22;20004;-68
2023/07/22 04:56:37;;;;;;;16.15;12.63;;;;;;;14.33;81.92;101295.97;6216158;23;20004;-68
2023/07/22 04:59:03;;;;;;;15.18;12.45;;;;;;;14.47;80.14;101298.34;6166480;23;20008;-68
2023/07/22 05:01:28;;;;;;;15.45;12.43;;;;;;;14.64;79.42;101291.84;6166302;23;20042;-68
2023/07/22 05:03:55;;;;;;;16.27;12.65;;;;;;;15.16;77.37;101287.19;6190527;23;20038;-68
2023/07/22 05:06:21;;;;;;;13.95;12.20;;;;;;;15.67;76.88;101294.72;6216105;23;20007;-68
2023/07/22 05:08:46;;;;;;;14.85;12.60;;;;;;;16.06;74.49;101297.25;6165358;23;20103;-68
2023/07/22 05:11:11;;;;;;;16.92;12.13;;;;;;;16.37;73.95;101295.53;6191548;23;20502;-68
2023/07/22 05:13:37;;;;;;;15.23;11.90;;;;;;;16.21;72.87;101301.25;6191098;23;20369;-68
2023/07/22 05:16:03;;;;;;;16.52;12.25;;;;;;;15.89;73.84;101299.50;6215921;23;20090;-68
2023/07/22 05:18:28;;;;;;;19.98;12.48;;;;;;;15.46;75.61;101298.78;6190580;23;20004;-68
2023/07/22 05:20:54;;;;;;;17.27;12.27;;;;;;;15.19;76.92;101303.81;6216086;23;20008;-68
2023/07/22 05:23:20;;;;;;;14.65;12.63;;;;;;;14.98;77.41;101299.03;6215032;23;20078;-68
2023/07/22 05:25:53;;;;;;;20.08;13.57;;;;;;;14.97;78.57;101307.84;6214844;23;20015;-68
2023/07/22 05:28:18;;;;;;;15.10;12.95;;;;;;;14.84;78.46;101301.97;6190181;23;20038;-68
2023/07/22 05:30:44;;;;;;;15.45;12.07;;;;;;;14.73;80.07;101308.34;6165618;23;20036;-68
2023/07/22 05:33:09;;;;;;;16.70;12.80;;;;;;;14.75;80.16;101292.50;6190157;23;20217;-68
2023/07/22 05:35:35;;;;;;;16.67;12.95;;;;;;;14.94;80.29;101298.25;6210726;23;20092;-68
2023/07/22 05:38:03;;;;;;;15.50;12.82;;;;;;;15.55;77.62;101298.53;6163146;23;20098;-68
2023/07/22 05:40:29;;;;;;;17.00;12.52;;;;;;;16.60;74.51;101303.63;6187228;23;20040;-68
2023/07/22 05:42:54;;;;;;;14.27;11.35;;;;;;;17.69;70.23;101301.13;6212573;23;20000;-68
2023/07/22 05:45:20;;;;;;;15.50;11.80;;;;;;;18.38;67.54;101302.28;6163211;23;20016;-68
2023/07/22 05:47:45;;;;;;;14.02;11.50;;;;;;;19.11;64.55;101301.25;6186924;23;20021;-68
2023/07/22 05:50:11;;;;;;;14.20;10.88;;;;;;;19.48;62.91;101294.44;6188141;23;20088;-68
2023/07/22 05:52:36;;;;;;;14.13;11.45;;;;;;;18.72;64.21;101311.59;6187715;23;20009;-68
2023/07/22 05:55:02;;;;;;;19.40;12.02;;;;;;;18.62;65.72;101304.00;6162042;23;20087;-67
2023/07/22 05:57:27;;;;;;;15.50;11.10;;;;;;;18.92;64.63;101303.78;6163534;23;20016;-68
2023/07/22 05:59:53;;;;;;;14.88;11.90;;;;;;;19.89;62.65;101299.78;6188144;23;20443;-68
2023/07/22 06:02:18;;;;;;;15.85;11.85;;;;;;;20.52;60.54;101297.91;6187015;23;20059;-68
2023/07/22 06:04:44;;;;;;;14.48;10.70;;;;;;;20.70;59.21;101297.09;6163014;23;20012;-68
2023/07/22 06:07:09;;;;;;;14.07;11.27;;;;;;;21.08;57.12;101296.19;6188334;23;20044;-68
2023/07/22 06:09:35;;;;;;;12.65;10.45;;;;;;;21.62;55.40;101301.53;6187543;23;20019;-67
2023/07/22 06:12:01;;;;;;;14.50;11.13;;;;;;;22.09;54.39;101295.53;6188354;23;20427;-68
2023/07/22 06:14:27;;;;;;;13.55;11.15;;;;;;;22.21;53.14;101301.16;6212983;23;20422;-68
2023/07/22 06:16:52;;;;;;;14.88;11.15;;;;;;;22.09;53.29;101300.84;6188395;23;20009;-68
2023/07/22 06:19:18;;;;;;;14.63;11.27;;;;;;;22.75;52.37;101298.25;6162513;23;20449;-67
2023/07/22 06:21:44;;;;;;;17.10;11.63;;;;;;;22.95;52.05;101294.47;6188300;23;20032;-68
2023/07/22 06:24:10;;;;;;;14.25;11.32;;;;;;;23.22;50.63;101300.06;6187145;23;20415;-67
2023/07/22 06:26:35;;;;;;;15.07;10.77;;;;;;;23.46;50.40;101295.13;6211878;23;20054;-68
2023/07/22 06:29:01;;;;;;;14.73;11.23;;;;;;;23.47;50.30;101291.47;6211771;23;20008;-68
2023/07/22 06:31:30;;;;;;;15.27;11.05;;;;;;;23.48;50.25;101290.53;6160954;23;20062;-67
2023/07/22 06:33:59;;;;;;;14.57;11.48;;;;;;;23.37;50.38;101292.97;6162501;23;20008;-68
2023/07/22 06:36:25;;;;;;;16.90;11.38;;;;;;;23.38;50.80;101296.53;6210325;23;20466;-68
2023/07/22 06:38:51;;;;;;;14.18;11.15;;;;;;;22.73;52.11;101297.47;6186174;23;20175;-67
2023/07/22 06:41:17;;;;;;;13.90;11.40;;;;;;;22.44;53.38;101295.47;6187570;23;20052;-68
2023/07/22 06:43:43;;;;;;;18.02;10.90;;;;;;;22.38;53.03;101292.28;6187297;23;20461;-68
2023/07/22 06:46:08;;;;;;;14.07;11.00;;;;;;;22.37;54.16;101288.75;6184953;23;20012;-68
2023/07/22 06:48:35;;;;;;;13.55;11.20;;;;;;;21.88;53.71;101284.19;6183635;23;20004;-68
2023/07/22 06:51:00;;;;;;;16.27;11.30;;;;;;;21.22;55.11;101277.72;6187090;23;20386;-68
2023/07/22 06:53:25;;;;;;;14.60;11.45;;;;;;;21.16;57.26;101282.47;6162962;23;20005;-68
2023/07/22 06:55:52;;;;;;;17.48;12.32;;;;;;;21.01;58.04;101278.78;6210758;23;20051;-68
2023/07/22 06:58:19;;;;;;;15.50;11.00;;;;;;;21.05;60.51;101275.88;6212322;23;20005;-68
2023/07/22 07:00:44;;;;;;;18.08;11.65;;;;;;;20.80;58.54;101265.53;6212490;23;20423;-67
2023/07/22 07:03:10;;;;;;;16.52;12.18;;;;;;;20.74;59.50;101269.34;6163152;23;20005;-67
2023/07/22 07:05:35;;;;;;;14.55;11.80;;;;;;;20.53;59.29;101267.69;6162257;23;20013;-66
2023/07/22 07:08:02;;;;;;;14.93;11.45;;;;;;;20.06;60.47;101268.94;6213506;23;20047;-67
2023/07/22 07:10:27;;;;;;;16.23;12.25;;;;;;;19.58;61.70;101267.44;6162177;23;20004;-67
2023/07/22 07:12:52;;;;;;;16.42;12.35;;;;;;;19.38;63.64;101271.84;6187868;23;20445;-66
2023/07/22 07:15:18;;;;;;;14.40;11.43;;;;;;;19.20;63.80;101268.13;6162873;23;20005;-67
2023/07/22 07:17:44;;;;;;;17.70;12.13;;;;;;;19.04;65.95;101274.06;6161496;23;20016;-66
2023/07/22 07:20:09;;;;;;;18.25;12.43;;;;;;;18.97;65.22;101264.63;6210605;23;20338;-67
2023/07/22 07:22:35;;;;;;;17.38;12.77;;;;;;;18.80;65.90;101269.72;6187155;23;20312;-66
2023/07/22 07:25:00;;;;;;;17.20;12.77;;;;;;;18.66;66.32;101267.59;6186065;23;20008;-66
2023/07/22 07:27:27;;;;;;;17.95;12.50;;;;;;;18.57;67.74;101268.81;6187695;23;20083;-66
2023/07/22 07:29:52;;;;;;;18.02;12.70;;;;;;;18.47;68.65;101275.38;6187445;23;20078;-67
2023/07/22 07:32:18;;;;;;;15.93;12.50;;;;;;;18.43;68.76;101268.47;6187190;23;20403;-67
2023/07/22 07:34:43;;;;;;;18.05;12.70;;;;;;;18.33;69.71;101268.81;6166974;22;20363;-67
2023/07/22 07:37:09;;;;;;;18.10;13.75;;;;;;;18.35;70.04;101277.59;6193203;23;20065;-68
2023/07/22 07:39:34;;;;;;;17.55;12.85;;;;;;;18.17;69.10;101267.66;6216578;23;20115;-67
2023/07/22 07:41:59;;;;;;;15.23;12.50;;;;;;;18.06;69.80;101272.47;6217971;23;20367;-67
2023/07/22 07:44:25;;;;;;;15.68;11.98;;;;;;;18.06;70.35;101281.31;6190576;23;20019;-67
2023/07/22 07:46:50;;;;;;;20.65;13.32;;;;;;;17.91;69.92;101277.41;6217684;23;20015;-68
2023/07/22 07:49:16;;;;;;;15.65;12.75;;;;;;;17.86;70.63;101271.38;6191406;23;20012;-67
2023/07/22 07:51:42;;;;;;;20.10;13.00;;;;;;;17.88;70.95;101274.84;6217679;23;20012;-68
2023/07/22 07:54:08;;;;;;;15.32;11.93;;;;;;;17.71;71.02;101269.28;6192685;22;20432;-67
2023/07/22 07:56:33;;;;;;;14.57;12.15;;;;;;;17.70;71.79;101275.47;6217949;23;20016;-68
2023/07/22 07:58:59;;;;;;;19.42;13.50;;;;;;;17.80;72.80;101272.47;6192154;23;20087;-67
2023/07/22 08:01:24;;;;;;;14.63;11.85;;;;;;;17.71;71.44;101267.47;6217864;23;20365;-67
2023/07/22 08:03:50;;;;;;;17.23;12.15;;;;;;;17.75;72.28;101276.19;6167596;23;20380;-67
2023/07/22 08:06:16;;;;;;;15.38;12.18;;;;;;;17.82;72.36;101275.06;6192859;23;20012;-67
2023/07/22 08:08:41;;;;;;;19.42;11.75;;;;;;;18.00;72.02;101274.44;6217969;23;20030;-67
2023/07/22 08:11:10;;;;;;;18.60;11.75;;;;;;;18.13;71.81;101279.28;6167854;23;20008;-67
2023/07/22 08:13:43;;;;;;;15.70;11.02;;;;;;;18.47;72.03;101284.22;6217561;23;20034;-67
2023/07/22 08:16:11;;;;;;;16.48;11.25;;;;;;;18.78;71.60;101272.41;6190931;23;20118;-67
2023/07/22 08:18:39;;;;;;;14.57;10.77;;;;;;;18.94;69.44;101288.63;6217450;23;20000;-67
2023/07/22 08:21:07;;;;;;;17.73;10.55;;;;;;;19.25;67.91;101268.81;6167864;23;20103;-67
2023/07/22 08:23:32;;;;;;;14.45;10.30;;;;;;;19.48;67.33;101264.31;6217714;23;20004;-67
2023/07/22 08:25:58;;;;;;;14.05;9.65;;;;;;;19.45;65.09;101272.41;6216331;23;20323;-67
2023/07/22 08:28:23;;;;;;;15.52;9.65;;;;;;;19.37;65.62;101272.75;6191382;23;20011;-67
2023/07/22 08:30:49;;;;;;;11.73;8.70;;;;;;;19.33;64.60;101268.50;6191348;23;20008;-67
2023/07/22 08:33:16;;;;;;;11.32;8.48;;;;;;;19.38;65.06;101272.69;6191599;23;20009;-67
2023/07/22 08:35:41;;;;;;;14.98;8.95;;;;;;;19.37;65.48;101281.56;6216883;23;20039;-68
2023/07/22 08:38:08;;;;;;;10.80;7.50;;;;;;;19.44;64.41;101284.84;6191092;23;20012;-67
2023/07/22 08:40:39;;;;;;;12.13;8.38;;;;;;;19.44;63.82;101283.97;6216103;23;20004;-67
2023/07/22 08:43:09;;;;;;;12.27;7.90;;;;;;;19.46;62.71;101276.81;6216909;23;20047;-68
2023/07/22 08:45:38;;;;;;;;;;;;;;;19.85;64.35;101281.38;6216833;23;20016;-67
2023/07/22 08:48:09;;;;;;;10.30;8.38;;;;;;;20.01;63.58;101282.44;6215105;23;19986;-68
2023/07/22 08:50:44;;;;;;;13.60;8.63;;;;;;;20.04;63.13;101277.00;6190576;23;20008;-68
2023/07/22 08:53:11;;;;;;;11.68;7.82;;;;;;;20.28;63.10;101276.78;6214851;23;20011;-68
2023/07/22 08:55:40;;;;;;;10.90;7.13;;;;;;;20.31;61.65;101274.00;6190626;23;20011;-68
2023/07/22 08:58:08;;;;;;;14.43;7.55;;;;;;;20.17;60.89;101279.06;6214658;23;20073;-68
2023/07/22 09:00:34;;;;;;;12.38;7.75;;;;;;;20.27;60.78;101275.09;6191467;23;20031;-68
2023/07/22 09:03:00;;;;;;;11.70;6.95;;;;;;;20.44;61.06;101274.28;6190736;23;20355;-68
2023/07/22 09:05:26;;;;;;;9.23;7.25;;;;;;;20.94;62.31;101272.88;6191450;23;20422;-68
2023/07/22 09:07:52;;;;;;;8.07;6.45;;;;;;;21.01;58.57;101276.97;6244162;23;20038;-68
2023/07/22 09:10:20;;;;;;;9.07;5.90;;;;;;;21.01;57.67;101279.63;6189078;23;20008;-68
2023/07/22 09:12:46;;;;;;;10.50;7.10;;;;;;;20.92;59.02;101274.75;6216325;23;20011;-68
2023/07/22 09:15:12;;;;;;;10.07;5.53;;;;;;;21.01;59.02;101276.97;6192031;23;20065;-67
2023/07/22 09:17:41;;;;;;;7.75;5.38;;;;;;;21.00;57.35;101277.88;6191451;23;20087;-68
2023/07/22 09:20:07;;;;;;;10.82;6.03;;;;;;;21.01;58.17;101281.44;6215894;23;20011;-68
2023/07/22 09:22:33;;;;;;;8.68;5.10;;;;;;;21.03;57.03;101275.09;6215741;23;20012;-68
2023/07/22 09:25:22;;;;;;;9.45;4.72;;;;;;;20.92;56.59;101278.28;6216192;23;20008;-68
2023/07/22 09:27:52;;;;;;;8.25;4.75;;;;;;;20.58;55.44;101276.31;6216522;23;20430;-68
2023/07/22 09:30:24;;;;;;;5.85;3.72;;;;;;;20.47;54.72;101276.81;6191387;23;20016;-68
2023/07/22 09:32:50;;;;;;;9.77;4.43;;;;;;;20.47;55.72;101268.81;6214254;23;20004;-68
2023/07/22 09:35:17;;;;;;;6.20;4.35;;;;;;;20.38;56.05;101274.59;6182929;23;20020;-68
2023/07/22 09:37:42;;;;;;;7.82;4.32;;;;;;;20.56;56.79;101270.22;6209159;23;20012;-67
2023/07/22 09:40:19;;;;;;;9.23;3.88;;;;;;;20.56;54.69;101267.56;6187233;23;20061;-68
2023/07/22 09:42:50;;;;;;;9.40;4.40;;;;;;;20.60;56.43;101263.78;6216557;23;20538;-68
2023/07/22 09:45:17;;;;;;;7.90;5.38;;;;;;;20.52;56.87;101260.66;6214420;23;20422;-68
2023/07/22 09:47:45;;;;;;;9.35;5.85;;;;;;;20.50;56.18;101273.16;6214735;23;20095;-68
2023/07/22 09:50:19;;;;;;;8.45;5.95;;;;;;;20.31;56.38;101265.16;6217070;23;20062;-68
2023/07/22 09:52:47;;;;;;;8.95;5.65;;;;;;;20.23;57.10;101257.53;6216612;23;20004;-68
2023/07/22 09:55:15;;;;;;;8.55;4.80;;;;;;;20.15;57.00;101260.53;6214989;23;20209;-68
2023/07/22 09:57:45;;;;;;;9.52;5.30;;;;;;;20.16;58.54;101258.75;6216446;23;20007;-68
2023/07/22 10:00:15;;;;;;;10.55;5.10;;;;;;;20.27;58.07;101260.91;6216925;23;20059;-68
2023/07/22 10:02:43;;;;;;;;;;;;;;;20.46;57.96;101255.59;6243805;23;20283;-68
2023/07/22 10:05:12;;;;;;;8.75;4.80;;;;;;;20.29;58.30;101254.59;6216688;23;19903;-68
2023/07/22 10:07:42;;;;;;;7.68;5.00;;;;;;;20.05;58.35;101249.44;6191381;23;20077;-68
2023/07/22 10:10:09;;;;;;;8.35;4.72;;;;;;;20.18;58.93;101254.22;6215609;23;20004;-68
2023/07/22 10:12:35;;;;;;;9.02;4.75;;;;;;;20.20;58.72;101260.31;6191645;23;20508;-68
2023/07/22 10:15:02;;;;;;;6.97;4.97;;;;;;;20.24;59.74;101261.91;6189460;23;20004;-68
2023/07/22 10:17:29;;;;;;;9.02;5.10;;;;;;;20.25;58.66;101255.66;6190827;23;20095;-68
2023/07/22 10:19:57;;;;;;;10.10;4.78;;;;;;;20.43;59.09;101261.94;6191770;23;20012;-68
2023/07/22 10:22:23;;;;;;;6.70;4.28;;;;;;;20.58;59.58;101263.00;6192510;23;20016;-68
2023/07/22 10:24:50;;;;;;;7.55;4.65;;;;;;;20.87;60.34;101255.47;6191853;23;20012;-68
2023/07/22 10:27:17;;;;;;;10.05;3.92;;;;;;;20.92;57.56;101264.09;6168730;23;20015;-68
2023/07/22 10:29:45;;;;;;;7.07;4.55;;;;;;;21.28;57.96;101256.06;6218546;23;20004;-68
2023/07/22 10:32:11;;;;;;;10.10;4.70;;;;;;;21.45;57.15;101260.56;6193708;23;20000;-68
2023/07/22 10:34:36;;;;;;;8.88;5.05;;;;;;;21.51;58.76;101255.88;6192996;23;20008;-68
2023/07/22 10:37:04;;;;;;;9.32;4.60;;;;;;;21.57;56.60;101261.78;6193236;23;20042;-68
2023/07/22 10:39:29;;;;;;;8.82;4.45;;;;;;;21.35;55.22;101259.31;6193433;23;20020;-68
2023/07/22 10:42:04;;;;;;;10.73;5.10;;;;;;;21.38;57.38;101260.97;6218481;23;20015;-68
2023/07/22 10:44:39;;;;;;;7.35;4.30;;;;;;;21.32;56.68;101256.81;6192938;23;20455;-68
2023/07/22 10:47:07;;;;;;;7.68;3.88;;;;;;;21.35;57.20;101251.31;6192806;23;20008;-68
2023/07/22 10:49:47;;;;;;;9.43;3.63;;;;;;;21.24;54.28;101248.31;6193360;23;20036;-67
2023/07/22 10:52:14;;;;;;;5.30;3.40;;;;;;;21.22;54.71;101248.41;6218092;23;20054;-68
2023/07/22 10:54:40;;;;;;;7.38;3.70;;;;;;;21.28;53.71;101249.91;6216430;23;20087;-68
2023/07/22 10:57:25;;;;;;;6.85;3.63;;;;;;;21.38;54.86;101245.81;6218357;23;20026;-68
2023/07/22 10:59:51;;;;;;;5.10;2.85;;;;;;;21.35;54.12;101245.09;6218479;23;20004;-68
2023/07/22 11:02:27;;;;;;;6.03;2.90;;;;;;;21.31;54.94;101248.88;6192974;23;20004;-68
2023/07/22 11:04:55;;;;;;;4.90;3.00;;;;;;;21.40;54.97;101246.59;6217918;23;20405;-68
2023/07/22 11:07:32;;;;;;;4.40;2.40;;;;;;;21.48;52.55;101253.34;6217049;23;20000;-68
2023/07/22 11:09:57;;;;;;;5.00;2.30;;;;;;;21.44;51.97;101245.50;6192627;23;20304;-68